createdAt,value
2017-08-14T00:01:51.702Z,15.80
2017-08-14T00:04:19.841Z,15.70
2017-08-14T00:06:47.477Z,15.70
2017-08-14T00:09:15.151Z,15.80
2017-08-14T00:11:42.841Z,15.80
2017-08-14T00:14:10.478Z,15.70
2017-08-14T00:16:38.111Z,15.70
2017-08-14T00:19:06.204Z,15.60
2017-08-14T00:21:33.885Z,15.60
2017-08-14T00:24:01.526Z,15.60
2017-08-14T00:26:29.217Z,15.50
2017-08-14T00:28:56.854Z,15.40
2017-08-14T00:31:24.894Z,15.40
2017-08-14T00:33:52.621Z,15.40
2017-08-14T00:36:20.367Z,15.40
2017-08-14T00:38:48.022Z,15.40
2017-08-14T00:41:15.721Z,15.40
2017-08-14T00:43:43.385Z,15.40
2017-08-14T00:46:11.038Z,15.40
2017-08-14T00:48:38.794Z,15.30
2017-08-14T00:51:06.481Z,15.30
2017-08-14T00:53:34.186Z,15.30
2017-08-14T00:56:01.903Z,15.20
2017-08-14T00:58:29.571Z,15.20
2017-08-14T01:00:57.213Z,15.30
2017-08-14T01:03:24.885Z,15.30
2017-08-14T01:05:52.618Z,15.20
2017-08-14T01:08:20.261Z,15.10
2017-08-14T01:10:47.955Z,15.00
2017-08-14T01:13:15.666Z,15.00
2017-08-14T01:15:43.707Z,14.80
2017-08-14T01:18:11.455Z,14.80
2017-08-14T01:20:39.094Z,14.80
2017-08-14T01:23:06.729Z,14.80
2017-08-14T01:25:34.418Z,14.70
2017-08-14T01:28:02.139Z,14.60
2017-08-14T01:30:29.887Z,14.60
2017-08-14T01:32:57.634Z,14.60
2017-08-14T01:35:25.381Z,14.60
2017-08-14T01:37:53.024Z,14.60
2017-08-14T01:40:20.715Z,14.60
2017-08-14T01:42:48.417Z,14.60
2017-08-14T01:45:16.164Z,14.60
2017-08-14T01:47:43.842Z,14.60
2017-08-14T01:50:11.865Z,14.50
2017-08-14T01:52:39.514Z,14.50
2017-08-14T01:55:07.206Z,14.40
2017-08-14T01:57:34.862Z,14.40
2017-08-14T02:00:02.505Z,14.50
2017-08-14T02:02:30.219Z,14.50
2017-08-14T02:04:57.854Z,14.60
2017-08-14T02:07:25.892Z,14.70
2017-08-14T02:09:53.653Z,14.70
2017-08-14T02:12:21.386Z,14.70
2017-08-14T02:14:49.018Z,14.60
2017-08-14T02:17:16.714Z,14.60
2017-08-14T02:19:44.402Z,14.60
2017-08-14T02:22:12.040Z,14.70
2017-08-14T02:24:39.741Z,14.70
2017-08-14T02:27:07.386Z,14.70
2017-08-14T02:29:35.034Z,14.70
2017-08-14T02:32:03.202Z,14.50
2017-08-14T02:34:30.904Z,14.50
2017-08-14T02:36:58.532Z,14.50
2017-08-14T02:39:26.214Z,14.50
2017-08-14T02:41:54.561Z,14.40
2017-08-14T02:44:22.190Z,14.40
2017-08-14T02:46:49.955Z,14.40
2017-08-14T02:49:17.590Z,14.40
2017-08-14T02:51:45.225Z,14.40
2017-08-14T02:54:12.988Z,14.30
2017-08-14T02:56:40.628Z,14.30
2017-08-14T02:59:08.276Z,14.20
2017-08-14T03:01:36.127Z,14.20
2017-08-14T03:04:03.772Z,14.20
2017-08-14T03:06:31.519Z,14.10
2017-08-14T03:08:59.214Z,14.10
2017-08-14T03:11:26.855Z,14.10
2017-08-14T03:13:54.490Z,14.10
2017-08-14T03:16:22.575Z,14.00
2017-08-14T03:18:50.215Z,14.10
2017-08-14T03:21:17.854Z,14.00
2017-08-14T03:23:45.546Z,13.90
2017-08-14T03:26:13.182Z,13.90
2017-08-14T03:28:40.835Z,13.80
2017-08-14T03:31:08.627Z,13.80
2017-08-14T03:33:36.270Z,13.80
2017-08-14T03:36:03.905Z,13.80
2017-08-14T03:38:31.594Z,13.70
2017-08-14T03:40:59.267Z,13.70
2017-08-14T03:43:26.906Z,13.70
2017-08-14T03:45:54.590Z,13.70
2017-08-14T03:48:22.233Z,13.70
2017-08-14T03:50:49.949Z,13.70
2017-08-14T03:53:17.696Z,13.70
2017-08-14T03:55:45.342Z,13.70
2017-08-14T03:58:13.090Z,13.70
2017-08-14T04:00:40.835Z,13.80
2017-08-14T04:03:08.482Z,13.80
2017-08-14T04:05:36.123Z,13.90
2017-08-14T04:08:03.810Z,13.90
2017-08-14T04:10:31.446Z,13.90
2017-08-14T04:12:59.164Z,13.90
2017-08-14T04:15:26.846Z,13.90
2017-08-14T04:17:54.881Z,13.90
2017-08-14T04:20:22.522Z,13.90
2017-08-14T04:22:50.225Z,13.80
2017-08-14T04:25:17.854Z,13.80
2017-08-14T04:27:45.491Z,13.80
2017-08-14T04:30:13.377Z,13.80
2017-08-14T04:32:41.006Z,13.80
2017-08-14T04:35:08.683Z,13.80
2017-08-14T04:37:36.370Z,13.80
2017-08-14T04:40:04.011Z,13.80
2017-08-14T04:42:32.033Z,13.80
2017-08-14T04:45:00.061Z,13.80
2017-08-14T04:47:27.681Z,13.90
2017-08-14T04:49:55.373Z,13.90
2017-08-14T04:52:23.059Z,13.90
2017-08-14T04:54:51.086Z,14.00
2017-08-14T04:57:18.726Z,14.00
2017-08-14T04:59:46.416Z,14.10
2017-08-14T05:02:14.055Z,14.20
2017-08-14T05:04:41.754Z,14.30
2017-08-14T05:07:09.458Z,14.60
2017-08-14T05:09:37.101Z,14.70
2017-08-14T05:12:04.893Z,14.90
2017-08-14T05:14:32.596Z,15.10
2017-08-14T05:17:00.247Z,15.40
2017-08-14T05:19:27.889Z,15.40
2017-08-14T05:21:55.578Z,15.60
2017-08-14T05:24:23.326Z,15.80
2017-08-14T05:26:51.071Z,16.00
2017-08-14T05:29:18.811Z,16.30
2017-08-14T05:31:46.443Z,16.40
2017-08-14T05:34:14.086Z,16.50
2017-08-14T05:36:41.846Z,16.60
2017-08-14T05:39:09.499Z,16.70
2017-08-14T05:41:37.163Z,17.00
2017-08-14T05:44:04.998Z,17.10
2017-08-14T05:46:32.707Z,17.30
2017-08-14T05:49:00.357Z,17.30
2017-08-14T05:51:28.057Z,17.40
2017-08-14T05:53:56.113Z,17.70
2017-08-14T05:56:24.162Z,17.80
2017-08-14T05:58:52.362Z,18.00
2017-08-14T06:01:20.047Z,18.00
2017-08-14T06:03:47.734Z,18.10
2017-08-14T06:06:15.581Z,18.20
2017-08-14T06:08:43.653Z,18.40
2017-08-14T06:11:11.326Z,18.40
2017-08-14T06:13:39.034Z,18.60
2017-08-14T06:16:06.685Z,18.80
2017-08-14T06:18:34.358Z,19.10
2017-08-14T06:21:02.078Z,19.10
2017-08-14T06:23:29.775Z,19.20
2017-08-14T06:25:57.412Z,19.20
2017-08-14T06:28:25.106Z,19.40
2017-08-14T06:30:52.752Z,19.50
2017-08-14T06:33:20.401Z,19.40
2017-08-14T06:35:48.088Z,19.60
2017-08-14T06:38:15.718Z,19.70
2017-08-14T06:40:43.354Z,19.90
2017-08-14T06:43:11.049Z,19.90
2017-08-14T06:45:38.686Z,20.10
2017-08-14T06:48:06.323Z,20.30
2017-08-14T06:50:34.002Z,20.40
2017-08-14T06:53:02.036Z,21.00
2017-08-14T06:55:29.674Z,21.00
2017-08-14T06:57:57.417Z,20.90
2017-08-14T07:00:25.046Z,21.00
2017-08-14T07:02:52.705Z,21.30
2017-08-14T07:05:20.394Z,21.50
2017-08-14T07:07:48.033Z,21.70
2017-08-14T07:10:16.063Z,21.50
2017-08-14T07:12:43.749Z,21.50
2017-08-14T07:15:11.378Z,21.50
2017-08-14T07:17:39.416Z,21.60
2017-08-14T07:20:07.507Z,21.60
2017-08-14T07:22:35.147Z,21.70
2017-08-14T07:25:02.806Z,21.80
2017-08-14T07:27:30.501Z,21.80
2017-08-14T07:29:58.440Z,22.00
2017-08-14T07:32:26.066Z,22.20
2017-08-14T07:34:53.747Z,22.20
2017-08-14T07:37:21.389Z,22.30
2017-08-14T07:39:49.022Z,22.30
2017-08-14T07:42:16.766Z,22.50
2017-08-14T07:44:44.399Z,22.60
2017-08-14T07:47:12.025Z,22.90
2017-08-14T07:49:39.709Z,22.80
2017-08-14T07:52:07.355Z,22.30
2017-08-14T07:54:34.997Z,22.30
2017-08-14T07:57:02.737Z,22.30
2017-08-14T07:59:30.361Z,22.10
2017-08-14T08:01:57.985Z,22.20
2017-08-14T08:04:25.670Z,22.30
2017-08-14T08:06:53.424Z,22.30
2017-08-14T08:09:21.050Z,22.20
2017-08-14T08:11:48.739Z,22.40
2017-08-14T08:14:16.868Z,22.80
2017-08-14T08:16:44.498Z,22.80
2017-08-14T08:19:12.259Z,23.00
2017-08-14T08:21:39.880Z,23.00
2017-08-14T08:24:07.521Z,22.60
2017-08-14T08:26:35.294Z,22.70
2017-08-14T08:29:02.921Z,22.80
2017-08-14T08:31:30.550Z,23.10
2017-08-14T08:33:58.338Z,22.90
2017-08-14T08:36:25.965Z,22.90
2017-08-14T08:38:53.624Z,23.20
2017-08-14T08:41:21.372Z,23.50
2017-08-14T08:43:48.994Z,23.60
2017-08-14T08:46:16.623Z,23.60
2017-08-14T08:48:44.413Z,23.50
2017-08-14T08:51:12.155Z,23.40
2017-08-14T08:53:39.799Z,23.40
2017-08-14T08:56:07.484Z,23.50
2017-08-14T08:58:35.506Z,23.60
2017-08-14T09:01:03.142Z,23.60
2017-08-14T09:03:30.878Z,23.60
2017-08-14T09:05:58.506Z,23.70
2017-08-14T09:08:26.184Z,23.70
2017-08-14T09:10:53.931Z,23.70
2017-08-14T09:13:21.679Z,23.80
2017-08-14T09:15:49.321Z,23.70
2017-08-14T09:18:17.021Z,23.90
2017-08-14T09:20:44.663Z,24.10
2017-08-14T09:23:12.358Z,24.30
2017-08-14T09:25:40.106Z,24.40
2017-08-14T09:28:07.738Z,24.30
2017-08-14T09:30:35.366Z,24.30
2017-08-14T09:33:03.050Z,24.40
2017-08-14T09:35:30.786Z,24.60
2017-08-14T09:37:58.435Z,24.50
2017-08-14T09:40:26.118Z,24.50
2017-08-14T09:42:54.146Z,24.50
2017-08-14T09:45:21.778Z,24.50
2017-08-14T09:47:49.463Z,24.70
2017-08-14T09:50:17.581Z,24.90
2017-08-14T09:52:45.206Z,24.90
2017-08-14T09:55:12.887Z,24.90
2017-08-14T09:57:40.514Z,24.90
2017-08-14T10:00:08.161Z,24.80
2017-08-14T10:02:35.906Z,24.40
2017-08-14T10:05:03.550Z,24.50
2017-08-14T10:07:31.181Z,24.60
2017-08-14T10:09:58.886Z,24.80
2017-08-14T10:12:26.590Z,25.10
2017-08-14T10:14:54.219Z,25.20
2017-08-14T10:17:21.981Z,25.20
2017-08-14T10:19:49.616Z,25.10
2017-08-14T10:22:17.290Z,24.80
2017-08-14T10:24:45.019Z,24.70
2017-08-14T10:27:12.646Z,25.00
2017-08-14T10:29:40.275Z,25.10
2017-08-14T10:32:07.958Z,25.00
2017-08-14T10:34:35.630Z,25.10
2017-08-14T10:37:03.349Z,25.20
2017-08-14T10:39:31.150Z,25.30
2017-08-14T10:41:58.842Z,25.40
2017-08-14T10:44:26.491Z,25.40
2017-08-14T10:46:54.175Z,25.40
2017-08-14T10:49:21.959Z,25.50
2017-08-14T10:51:49.652Z,25.60
2017-08-14T10:54:17.782Z,25.60
2017-08-14T10:56:45.410Z,25.60
2017-08-14T10:59:13.072Z,25.60
2017-08-14T11:01:40.771Z,25.60
2017-08-14T11:04:08.427Z,25.70
2017-08-14T11:06:36.110Z,25.70
2017-08-14T11:09:03.908Z,25.70
2017-08-14T11:11:31.553Z,25.70
2017-08-14T11:13:59.288Z,25.70
2017-08-14T11:16:27.384Z,25.80
2017-08-14T11:18:55.014Z,25.80
2017-08-14T11:21:22.665Z,25.90
2017-08-14T11:23:50.443Z,26.00
2017-08-14T11:26:18.086Z,26.20
2017-08-14T11:28:45.709Z,26.50
2017-08-14T11:31:13.479Z,26.60
2017-08-14T11:33:41.101Z,26.70
2017-08-14T11:36:08.769Z,26.70
2017-08-14T11:38:36.462Z,26.40
2017-08-14T11:41:04.160Z,26.20
2017-08-14T11:43:31.798Z,26.20
2017-08-14T11:45:59.509Z,26.50
2017-08-14T11:48:27.200Z,26.90
2017-08-14T11:50:54.844Z,26.90
2017-08-14T11:53:22.706Z,26.90
2017-08-14T11:55:50.338Z,27.10
2017-08-14T11:58:17.959Z,26.90
2017-08-14T12:00:45.730Z,26.90
2017-08-14T12:03:13.478Z,26.70
2017-08-14T12:05:41.121Z,26.90
2017-08-14T12:08:08.811Z,26.90
2017-08-14T12:10:36.514Z,26.90
2017-08-14T12:13:04.157Z,27.00
2017-08-14T12:15:31.911Z,27.20
2017-08-14T12:17:59.656Z,27.20
2017-08-14T12:20:27.301Z,27.00
2017-08-14T12:22:54.997Z,26.70
2017-08-14T12:25:22.659Z,26.80
2017-08-14T12:27:50.293Z,26.80
2017-08-14T12:30:18.084Z,27.20
2017-08-14T12:32:45.728Z,27.40
2017-08-14T12:35:13.350Z,27.40
2017-08-14T12:37:41.121Z,27.40
2017-08-14T12:40:08.764Z,27.50
2017-08-14T12:42:36.399Z,27.60
2017-08-14T12:45:04.094Z,27.50
2017-08-14T12:47:32.212Z,27.40
2017-08-14T12:49:59.850Z,27.40
2017-08-14T12:52:27.545Z,27.50
2017-08-14T12:54:55.578Z,28.00
2017-08-14T12:57:23.206Z,28.00
2017-08-14T12:59:50.886Z,28.20
2017-08-14T13:02:18.594Z,28.10
2017-08-14T13:04:46.342Z,28.20
2017-08-14T13:07:14.089Z,28.30
2017-08-14T13:09:41.734Z,28.50
2017-08-14T13:12:09.377Z,28.60
2017-08-14T13:14:37.125Z,28.70
2017-08-14T13:17:04.763Z,28.80
2017-08-14T13:19:32.394Z,28.90
2017-08-14T13:22:00.164Z,29.10
2017-08-14T13:24:27.889Z,29.00
2017-08-14T13:26:55.526Z,28.90
2017-08-14T13:29:23.207Z,28.90
2017-08-14T13:31:50.845Z,28.80
2017-08-14T13:34:18.479Z,28.90
2017-08-14T13:36:46.239Z,28.80
2017-08-14T13:39:13.883Z,28.90
2017-08-14T13:41:41.529Z,29.20
2017-08-14T13:44:09.684Z,29.30
2017-08-14T13:46:37.332Z,29.30
2017-08-14T13:49:05.076Z,29.30
2017-08-14T13:51:32.745Z,29.40
2017-08-14T13:54:00.382Z,29.30
2017-08-14T13:56:28.014Z,29.10
2017-08-14T13:58:55.766Z,29.00
2017-08-14T14:01:23.409Z,28.90
2017-08-14T14:03:51.038Z,29.00
2017-08-14T14:06:18.729Z,29.20
2017-08-14T14:08:46.861Z,29.10
2017-08-14T14:11:14.496Z,29.10
2017-08-14T14:13:42.170Z,28.90
2017-08-14T14:16:10.654Z,28.90
2017-08-14T14:18:38.294Z,28.90
2017-08-14T14:21:06.098Z,28.90
2017-08-14T14:23:33.742Z,28.70
2017-08-14T14:26:01.388Z,28.50
2017-08-14T14:28:29.240Z,28.30
2017-08-14T14:30:56.885Z,28.30
2017-08-14T14:33:24.530Z,28.30
2017-08-14T14:35:52.282Z,28.30
2017-08-14T14:38:19.922Z,28.30
2017-08-14T14:40:47.550Z,28.20
2017-08-14T14:43:15.241Z,28.20
2017-08-14T14:45:43.270Z,28.20
2017-08-14T14:48:11.013Z,28.20
2017-08-14T14:50:38.714Z,28.20
2017-08-14T14:53:06.409Z,28.00
2017-08-14T14:55:34.067Z,28.00
2017-08-14T14:58:01.737Z,28.00
2017-08-14T15:00:29.370Z,28.10
2017-08-14T15:02:57.498Z,28.40
2017-08-14T15:05:25.352Z,28.40
2017-08-14T15:07:53.096Z,28.60
2017-08-14T15:10:20.740Z,28.60
2017-08-14T15:12:48.421Z,28.70
2017-08-14T15:15:16.541Z,28.70
2017-08-14T15:17:44.185Z,28.70
2017-08-14T15:20:11.861Z,28.50
2017-08-14T15:22:39.890Z,28.40
2017-08-14T15:25:07.509Z,28.40
2017-08-14T15:27:35.277Z,28.30
2017-08-14T15:30:04.202Z,28.20
2017-08-14T15:32:31.897Z,28.20
2017-08-14T15:34:59.647Z,28.10
2017-08-14T15:37:27.291Z,28.00
2017-08-14T15:39:54.913Z,27.80
2017-08-14T15:42:22.685Z,27.60
2017-08-14T15:44:50.322Z,27.60
2017-08-14T15:47:17.957Z,27.40
2017-08-14T15:49:45.722Z,27.30
2017-08-14T15:52:13.468Z,27.10
2017-08-14T15:54:41.214Z,27.00
2017-08-14T15:57:08.910Z,27.00
2017-08-14T15:59:36.553Z,27.00
2017-08-14T16:02:04.253Z,27.00
2017-08-14T16:04:32.027Z,26.90
2017-08-14T16:07:00.162Z,26.80
2017-08-14T16:09:27.804Z,26.80
2017-08-14T16:11:55.494Z,26.60
2017-08-14T16:14:23.125Z,26.30
2017-08-14T16:16:50.757Z,26.10
2017-08-14T16:19:39.144Z,25.90
2017-08-14T16:22:06.811Z,25.80
2017-08-14T16:24:34.454Z,25.70
2017-08-14T16:27:02.216Z,25.60
2017-08-14T16:29:29.846Z,25.40
2017-08-14T16:31:57.494Z,25.40
2017-08-14T16:34:25.242Z,25.30
2017-08-14T16:36:52.889Z,25.20
2017-08-14T16:39:20.531Z,25.20
2017-08-14T16:41:48.238Z,25.10
2017-08-14T16:44:15.923Z,25.00
2017-08-14T16:46:43.913Z,24.90
2017-08-14T16:49:11.725Z,24.80
2017-08-14T16:51:39.442Z,24.70
2017-08-14T16:54:07.116Z,24.60
2017-08-14T16:56:34.822Z,24.60
2017-08-14T16:59:02.630Z,24.50
2017-08-14T17:01:30.357Z,24.40
2017-08-14T17:03:58.211Z,24.30
2017-08-14T17:06:25.842Z,24.20
2017-08-14T17:08:53.500Z,24.10
2017-08-14T17:11:21.179Z,24.00
2017-08-14T17:13:49.347Z,23.90
2017-08-14T17:16:17.049Z,24.00
2017-08-14T17:18:44.796Z,23.90
2017-08-14T17:21:12.602Z,23.80
2017-08-14T17:23:40.290Z,23.80
2017-08-14T17:26:08.037Z,23.70
2017-08-14T17:28:35.674Z,23.70
2017-08-14T17:31:03.314Z,23.60
2017-08-14T17:33:31.030Z,23.50
2017-08-14T17:35:59.491Z,23.50
2017-08-14T17:38:27.132Z,23.40
2017-08-14T17:40:54.850Z,23.30
2017-08-14T17:43:22.987Z,23.20
2017-08-14T17:45:50.734Z,23.20
2017-08-14T17:48:18.430Z,23.10
2017-08-14T17:50:46.062Z,23.00
2017-08-14T17:53:14.134Z,22.90
2017-08-14T17:55:41.871Z,22.90
2017-08-14T17:58:09.501Z,22.90
2017-08-14T18:00:37.530Z,22.80
2017-08-14T18:03:05.270Z,22.80
2017-08-14T18:05:32.914Z,22.80
2017-08-14T18:08:00.661Z,22.70
2017-08-14T18:10:28.355Z,22.70
2017-08-14T18:12:56.006Z,22.60
2017-08-14T18:15:23.671Z,22.50
2017-08-14T18:17:51.558Z,22.50
2017-08-14T18:20:19.299Z,22.50
2017-08-14T18:22:46.945Z,22.40
2017-08-14T18:25:14.656Z,22.40
2017-08-14T18:27:42.448Z,22.40
2017-08-14T18:30:10.902Z,22.30
2017-08-14T18:32:38.637Z,22.30
2017-08-14T18:35:06.395Z,22.20
2017-08-14T18:37:34.111Z,22.10
2017-08-14T18:40:01.856Z,22.00
2017-08-14T18:42:29.521Z,22.00
2017-08-14T18:44:57.180Z,22.00
2017-08-14T18:47:24.929Z,21.90
2017-08-14T18:49:52.570Z,21.80
2017-08-14T18:52:20.231Z,21.80
2017-08-14T18:54:47.953Z,21.70
2017-08-14T18:57:15.590Z,21.60
2017-08-14T18:59:43.226Z,21.50
2017-08-14T19:02:10.927Z,21.50
2017-08-14T19:04:39.059Z,21.40
2017-08-14T19:07:06.804Z,21.40
2017-08-14T19:09:35.661Z,21.40
2017-08-14T19:12:02.358Z,21.30
2017-08-14T19:14:30.001Z,21.20
2017-08-14T19:16:57.795Z,21.10
2017-08-14T19:19:25.595Z,21.00
2017-08-14T19:21:53.293Z,20.90
2017-08-14T19:24:20.998Z,20.80
2017-08-14T19:26:48.726Z,20.80
2017-08-14T19:29:16.372Z,20.70
2017-08-14T19:31:44.054Z,20.80
2017-08-14T19:34:11.702Z,20.80
2017-08-14T19:36:39.362Z,20.70
2017-08-14T19:39:08.031Z,20.60
2017-08-14T19:41:35.678Z,20.60
2017-08-14T19:44:03.322Z,20.50
2017-08-14T19:46:31.014Z,20.50
2017-08-14T19:48:58.715Z,20.50
2017-08-14T19:51:26.359Z,20.40
2017-08-14T19:53:55.234Z,20.30
2017-08-14T19:56:23.390Z,20.20
2017-08-14T19:58:51.030Z,20.20
2017-08-14T20:01:18.782Z,20.20
2017-08-14T20:03:46.528Z,20.20
2017-08-14T20:06:14.165Z,20.20
2017-08-14T20:08:41.921Z,20.20
2017-08-14T20:11:09.669Z,20.20
2017-08-14T20:13:37.311Z,20.20
2017-08-14T20:16:05.043Z,20.20
2017-08-14T20:18:32.706Z,20.20
2017-08-14T20:21:01.374Z,20.20
2017-08-14T20:23:29.123Z,20.20
2017-08-14T20:25:56.766Z,20.10
2017-08-14T20:28:24.544Z,20.00
2017-08-14T20:30:52.778Z,19.80
2017-08-14T20:33:20.522Z,19.80
2017-08-14T20:35:48.680Z,19.70
2017-08-14T20:38:16.427Z,19.70
2017-08-14T20:40:44.172Z,19.70
2017-08-14T20:43:11.815Z,19.70
2017-08-14T20:45:39.497Z,19.80
2017-08-14T20:48:07.134Z,19.80
2017-08-14T20:50:35.187Z,19.70
2017-08-14T20:53:03.258Z,19.80
2017-08-14T20:55:30.961Z,19.80
2017-08-14T20:57:58.608Z,19.80
2017-08-14T21:00:26.356Z,19.80
2017-08-14T21:02:54.018Z,19.70
2017-08-14T21:05:22.136Z,19.60
2017-08-14T21:07:49.862Z,19.40
2017-08-14T21:10:17.551Z,19.40
2017-08-14T21:12:45.202Z,19.40
2017-08-14T21:15:12.941Z,19.40
2017-08-14T21:17:40.607Z,19.40
2017-08-14T21:20:08.323Z,19.50
2017-08-14T21:22:36.042Z,19.50
2017-08-14T21:25:03.689Z,19.40
2017-08-14T21:27:31.343Z,19.20
2017-08-14T21:29:59.021Z,19.10
2017-08-14T21:32:26.654Z,19.00
2017-08-14T21:34:54.305Z,19.00
2017-08-14T21:37:22.044Z,19.00
2017-08-14T21:39:49.709Z,19.00
2017-08-14T21:42:17.445Z,19.00
2017-08-14T21:44:45.143Z,19.00
2017-08-14T21:47:12.837Z,19.10
2017-08-14T21:49:40.485Z,19.00
2017-08-14T21:52:08.336Z,19.10
2017-08-14T21:54:35.981Z,19.00
2017-08-14T21:57:03.618Z,19.00
2017-08-14T21:59:31.368Z,18.80
2017-08-14T22:01:59.002Z,18.60
2017-08-14T22:04:26.640Z,18.60
2017-08-14T22:06:54.407Z,18.50
2017-08-14T22:09:22.155Z,18.40
2017-08-14T22:11:49.785Z,18.40
2017-08-14T22:14:17.548Z,18.30
2017-08-14T22:16:45.178Z,18.20
2017-08-14T22:19:12.837Z,18.20
2017-08-14T22:21:40.522Z,18.30
2017-08-14T22:24:08.230Z,18.30
2017-08-14T22:26:35.871Z,18.30
2017-08-14T22:29:03.619Z,18.30
2017-08-14T22:31:31.264Z,18.40
2017-08-14T22:33:58.894Z,18.40
2017-08-14T22:36:26.574Z,18.40
2017-08-14T22:38:54.304Z,18.30
2017-08-14T22:41:21.943Z,18.20
2017-08-14T22:43:49.657Z,18.10
2017-08-14T22:46:17.340Z,18.00
2017-08-14T22:48:44.985Z,17.90
2017-08-14T22:51:12.694Z,18.00
2017-08-14T22:53:40.317Z,18.00
2017-08-14T22:56:07.949Z,18.00
2017-08-14T22:58:36.047Z,17.80
2017-08-14T23:01:03.720Z,17.80
2017-08-14T23:03:31.349Z,17.80
2017-08-14T23:05:59.135Z,17.70
2017-08-14T23:08:26.833Z,17.80
2017-08-14T23:10:54.507Z,17.80
2017-08-14T23:13:22.294Z,17.70
2017-08-14T23:15:50.360Z,17.50
2017-08-14T23:18:18.054Z,17.50
2017-08-14T23:20:45.803Z,17.40
2017-08-14T23:23:13.437Z,17.30
2017-08-14T23:25:41.077Z,17.30
2017-08-14T23:28:08.776Z,17.30
2017-08-14T23:30:36.423Z,17.40
2017-08-14T23:33:04.128Z,17.30
2017-08-14T23:35:31.814Z,17.30
2017-08-14T23:37:59.964Z,17.20
2017-08-14T23:40:28.090Z,17.20
2017-08-14T23:42:55.765Z,17.20
2017-08-14T23:45:23.891Z,17.30
2017-08-14T23:47:51.638Z,17.30
2017-08-14T23:50:19.378Z,17.30
2017-08-14T23:52:47.006Z,17.30
2017-08-14T23:55:14.642Z,17.30
2017-08-14T23:57:42.334Z,17.40
